createdAt,value
2022-08-17T00:02:26.985Z,98004.13
2022-08-17T00:04:54.864Z,97987.28
2022-08-17T00:07:21.571Z,97991.63
2022-08-17T00:09:48.382Z,97990.66
2022-08-17T00:12:42.578Z,97969.44
2022-08-17T00:15:02.241Z,97982.66
2022-08-17T00:17:29.080Z,97974.63
2022-08-17T00:19:55.780Z,97978.31
2022-08-17T00:22:33.039Z,97926.31
2022-08-17T00:25:07.125Z,97978.13
2022-08-17T00:27:34.433Z,97982.66
2022-08-17T00:30:01.006Z,97980.97
2022-08-17T00:33:14.163Z,97983.63
2022-08-17T00:35:17.672Z,97986.31
2022-08-17T00:37:44.366Z,97980.13
2022-08-17T00:40:15.052Z,97984.63
2022-08-17T00:42:42.823Z,97981.13
2022-08-17T00:45:12.562Z,97988.13
2022-08-17T00:47:39.923Z,97993.63
2022-08-17T00:50:10.629Z,97993.63
2022-08-17T00:52:43.760Z,98002.59
2022-08-17T00:55:11.100Z,97997.28
2022-08-17T00:57:45.056Z,97995.59
2022-08-17T01:00:17.878Z,97997.28
2022-08-17T01:02:47.675Z,97994.78
2022-08-17T01:05:18.679Z,97994.78
2022-08-17T01:07:47.774Z,97987.59
2022-08-17T01:10:59.966Z,97986.78
2022-08-17T01:13:04.315Z,97988.63
2022-08-17T01:15:34.258Z,97993.97
2022-08-17T01:18:00.934Z,98000.28
2022-08-17T01:20:27.825Z,97998.59
2022-08-17T01:22:54.588Z,97995.13
2022-08-17T01:25:22.249Z,97991.59
2022-08-17T01:27:49.749Z,97986.25
2022-08-17T01:30:58.042Z,97989.91
2022-08-17T01:33:04.680Z,97987.25
2022-08-17T01:35:31.823Z,97977.91
2022-08-17T01:37:58.509Z,97981.09
2022-08-17T01:40:35.200Z,97982.91
2022-08-17T01:43:05.857Z,97975.94
2022-08-17T01:45:33.845Z,97981.25
2022-08-17T01:48:01.034Z,97976.06
2022-08-17T01:50:32.121Z,97976.91
2022-08-17T01:53:09.349Z,97967.16
2022-08-17T01:55:45.608Z,97982.38
2022-08-17T01:58:12.388Z,97981.56
2022-08-17T02:00:46.825Z,97985.22
2022-08-17T02:03:27.124Z,97987.88
2022-08-17T02:05:53.785Z,97991.53
2022-08-17T02:08:32.551Z,97989.72
2022-08-17T02:11:11.717Z,97989.72
2022-08-17T02:13:38.929Z,97997.72
2022-08-17T02:16:05.913Z,98001.38
2022-08-17T02:18:32.874Z,97995.22
2022-08-17T02:20:59.636Z,97993.38
2022-08-17T02:23:30.314Z,97999.72
2022-08-17T02:25:59.883Z,98000.69
2022-08-17T02:28:28.305Z,97999.88
2022-08-17T02:31:01.436Z,97994.69
2022-08-17T02:33:41.598Z,97996.50
2022-08-17T02:36:12.542Z,98002.69
2022-08-17T02:38:41.144Z,98004.66
2022-08-17T02:41:08.815Z,98002.00
2022-08-17T02:43:35.731Z,98001.31
2022-08-17T02:46:02.333Z,98002.97
2022-08-17T02:48:30.837Z,98010.97
2022-08-17T02:50:59.357Z,98004.81
2022-08-17T02:53:26.392Z,98011.97
2022-08-17T02:55:53.407Z,98003.97
2022-08-17T02:58:34.806Z,98008.66
2022-08-17T03:01:04.774Z,97999.78
2022-08-17T03:03:31.404Z,98012.31
2022-08-17T03:05:58.025Z,98005.28
2022-08-17T03:08:25.505Z,98009.81
2022-08-17T03:10:52.554Z,98007.44
2022-08-17T03:13:20.024Z,98010.78
2022-08-17T03:15:48.421Z,98008.94
2022-08-17T03:18:24.498Z,98009.94
2022-08-17T03:20:58.075Z,98020.78
2022-08-17T03:23:25.919Z,98018.09
2022-08-17T03:25:55.153Z,98013.94
2022-08-17T03:28:23.684Z,98020.94
2022-08-17T03:30:51.249Z,98018.28
2022-08-17T03:33:19.109Z,98013.94
2022-08-17T03:35:46.343Z,98014.09
2022-08-17T03:38:15.845Z,98016.75
2022-08-17T03:40:59.056Z,98022.09
2022-08-17T03:43:31.895Z,98027.56
2022-08-17T03:46:27.704Z,98027.56
2022-08-17T03:49:17.551Z,98024.06
2022-08-17T03:52:02.911Z,98015.19
2022-08-17T03:54:48.108Z,98031.53
2022-08-17T03:57:14.953Z,98027.19
2022-08-17T03:59:41.628Z,98031.88
2022-08-17T04:02:12.556Z,98034.53
2022-08-17T04:07:04.005Z,98026.47
2022-08-17T04:09:30.890Z,98041.69
2022-08-17T04:11:57.547Z,98044.50
2022-08-17T04:14:31.228Z,98046.31
2022-08-17T04:16:58.116Z,98039.34
2022-08-17T04:19:24.746Z,98041.16
2022-08-17T04:21:51.344Z,98037.66
2022-08-17T04:24:17.985Z,98049.16
2022-08-17T04:26:53.993Z,98050.00
2022-08-17T04:29:21.734Z,98050.28
2022-08-17T04:31:48.452Z,98047.47
2022-08-17T04:34:16.344Z,98050.00
2022-08-17T04:36:47.958Z,98039.81
2022-08-17T04:39:17.268Z,98055.34
2022-08-17T04:42:02.345Z,98055.47
2022-08-17T04:44:37.678Z,98050.47
2022-08-17T04:47:04.807Z,98053.13
2022-08-17T04:49:32.516Z,98053.28
2022-08-17T04:52:04.392Z,98054.28
2022-08-17T04:54:31.778Z,98054.09
2022-08-17T04:56:58.435Z,98058.47
2022-08-17T04:59:25.067Z,98056.63
2022-08-17T05:01:52.333Z,98055.63
2022-08-17T05:04:33.802Z,98054.81
2022-08-17T05:07:03.974Z,98041.25
2022-08-17T05:09:30.939Z,98028.53
2022-08-17T05:12:01.617Z,98052.78
2022-08-17T05:14:33.420Z,98058.00
2022-08-17T05:17:01.421Z,98056.97
2022-08-17T05:19:28.648Z,98053.50
2022-08-17T05:21:55.325Z,98054.31
2022-08-17T05:24:38.293Z,98063.97
2022-08-17T05:27:06.655Z,98053.66
2022-08-17T05:29:35.469Z,98066.81
2022-08-17T05:32:38.642Z,98064.16
2022-08-17T05:35:00.169Z,98070.31
2022-08-17T05:37:26.788Z,98072.16
2022-08-17T05:39:54.343Z,98071.00
2022-08-17T05:42:21.590Z,98073.81
2022-08-17T05:44:48.367Z,98070.16
2022-08-17T05:47:14.985Z,98083.34
2022-08-17T05:49:41.620Z,98025.00
2022-08-17T05:52:20.432Z,98072.16
2022-08-17T05:55:11.693Z,98082.19
2022-08-17T05:57:53.488Z,98081.03
2022-08-17T06:00:43.045Z,98081.03
2022-08-17T06:03:27.161Z,98079.06
2022-08-17T06:06:03.451Z,98079.34
2022-08-17T06:08:42.349Z,98076.41
2022-08-17T06:11:53.676Z,98079.06
2022-08-17T06:14:59.355Z,98088.88
2022-08-17T06:17:28.053Z,98084.38
2022-08-17T06:20:02.704Z,98082.53
2022-08-17T06:22:34.428Z,98094.72
2022-08-17T06:25:02.810Z,98084.06
2022-08-17T06:27:45.016Z,98083.94
2022-08-17T06:30:15.986Z,98079.41
2022-08-17T06:32:45.688Z,98086.25
2022-08-17T06:35:17.144Z,98081.63
2022-08-17T06:38:08.493Z,98075.31
2022-08-17T06:40:57.050Z,98009.22
2022-08-17T06:43:48.520Z,98078.50
2022-08-17T06:46:30.576Z,98075.66
2022-08-17T06:49:14.642Z,98078.19
2022-08-17T06:51:46.308Z,98079.72
2022-08-17T06:54:38.810Z,98074.38
2022-08-17T06:57:18.238Z,98076.75
2022-08-17T06:59:55.186Z,98083.59
2022-08-17T07:03:02.240Z,98081.75
2022-08-17T07:05:38.853Z,98086.91
2022-08-17T07:08:30.050Z,98085.78
2022-08-17T07:11:03.768Z,98077.78
2022-08-17T07:13:50.520Z,98089.13
2022-08-17T07:16:41.050Z,98085.47
2022-08-17T07:19:10.887Z,98086.28
2022-08-17T07:21:54.956Z,98092.31
2022-08-17T07:24:33.546Z,98091.31
2022-08-17T07:27:13.668Z,98084.81
2022-08-17T07:29:50.927Z,98082.97
2022-08-17T07:32:24.070Z,98081.16
2022-08-17T07:35:24.949Z,98087.03
2022-08-17T07:38:24.842Z,98089.53
2022-08-17T07:41:02.685Z,98086.69
2022-08-17T07:43:31.489Z,98086.56
2022-08-17T07:46:35.416Z,98084.53
2022-08-17T07:49:08.074Z,98074.72
2022-08-17T07:51:43.806Z,98079.06
2022-08-17T07:54:22.516Z,98085.06
2022-08-17T07:57:15.393Z,98080.59
2022-08-17T08:00:01.411Z,98080.41
2022-08-17T08:02:40.632Z,98075.78
2022-08-17T08:07:55.541Z,98079.94
2022-08-17T08:10:35.441Z,98078.09
2022-08-17T08:13:14.545Z,98084.13
2022-08-17T08:15:53.709Z,98075.94
2022-08-17T08:18:54.392Z,98082.97
2022-08-17T08:21:36.475Z,98086.31
2022-08-17T08:24:24.049Z,98087.13
2022-08-17T08:27:02.897Z,98083.47
2022-08-17T08:29:50.552Z,98079.47
2022-08-17T08:32:36.844Z,98084.50
2022-08-17T08:39:42.359Z,98071.81
2022-08-17T08:42:20.609Z,98068.72
2022-08-17T08:45:05.863Z,98077.22
2022-08-17T08:48:22.719Z,98080.25
2022-08-17T08:51:05.804Z,98071.06
2022-08-17T08:54:01.164Z,98075.25
2022-08-17T08:56:49.707Z,98081.97
2022-08-17T08:59:34.004Z,98077.13
2022-08-17T09:02:34.975Z,98073.47
2022-08-17T09:05:14.219Z,98074.13
2022-08-17T09:07:57.620Z,98076.63
2022-08-17T09:10:25.400Z,98082.66
2022-08-17T09:13:10.151Z,98079.81
2022-08-17T09:15:48.157Z,98080.50
2022-08-17T09:18:59.844Z,98086.50
2022-08-17T09:21:22.507Z,98088.03
2022-08-17T09:24:00.139Z,98090.53
2022-08-17T09:26:39.425Z,98087.69
2022-08-17T09:29:12.881Z,98086.69
2022-08-17T09:32:03.509Z,98080.19
2022-08-17T09:37:06.682Z,98079.00
2022-08-17T09:39:41.891Z,98084.22
2022-08-17T09:42:29.168Z,98079.53
2022-08-17T09:45:08.137Z,98090.06
2022-08-17T09:47:46.683Z,98088.91
2022-08-17T09:52:42.096Z,98080.88
2022-08-17T09:55:08.724Z,98091.09
2022-08-17T09:57:54.599Z,98088.28
2022-08-17T10:00:27.919Z,98090.78
2022-08-17T10:03:16.099Z,98087.94
2022-08-17T10:06:02.717Z,98094.94
2022-08-17T10:08:55.283Z,98084.94
2022-08-17T10:12:00.723Z,98073.06
2022-08-17T10:14:56.496Z,98083.94
2022-08-17T10:17:26.293Z,98085.59
2022-08-17T10:20:34.009Z,98088.94
2022-08-17T10:23:26.996Z,98086.09
2022-08-17T10:26:15.783Z,98086.94
2022-08-17T10:29:12.517Z,98086.78
2022-08-17T10:31:45.929Z,98092.13
2022-08-17T10:34:18.837Z,98090.28
2022-08-17T10:37:15.074Z,98090.13
2022-08-17T10:40:00.239Z,98089.97
2022-08-17T10:42:33.720Z,98095.31
2022-08-17T10:45:16.126Z,98088.09
2022-08-17T10:48:07.769Z,98080.09
2022-08-17T10:52:55.901Z,98087.97
2022-08-17T10:55:25.698Z,98090.63
2022-08-17T10:58:13.400Z,98090.47
2022-08-17T11:00:39.950Z,98086.94
2022-08-17T11:03:21.224Z,98075.09
2022-08-17T11:06:17.119Z,98084.94
2022-08-17T11:08:57.572Z,98081.28
2022-08-17T11:11:59.785Z,98073.06
2022-08-17T11:14:39.148Z,98079.28
2022-08-17T11:17:13.047Z,98068.59
2022-08-17T11:20:05.212Z,98062.22
2022-08-17T11:23:09.434Z,98062.88
2022-08-17T11:25:47.880Z,98066.41
2022-08-17T11:28:19.285Z,98067.25
2022-08-17T11:30:50.997Z,98068.91
2022-08-17T11:33:29.673Z,98067.06
2022-08-17T11:36:22.836Z,98068.75
2022-08-17T11:39:06.193Z,98073.91
2022-08-17T11:42:00.824Z,98085.47
2022-08-17T11:44:44.131Z,98084.59
2022-08-17T11:48:23.741Z,98075.59
2022-08-17T11:51:12.449Z,98067.41
2022-08-17T11:53:39.211Z,98063.72
2022-08-17T11:56:41.108Z,98065.56
2022-08-17T11:59:33.260Z,98058.38
2022-08-17T12:02:02.067Z,98057.19
2022-08-17T12:04:35.012Z,98060.56
2022-08-17T12:07:18.020Z,98060.56
2022-08-17T12:09:49.726Z,98065.72
2022-08-17T12:12:33.151Z,98070.94
2022-08-17T12:15:16.699Z,98061.06
2022-08-17T12:17:55.978Z,98061.06
2022-08-17T12:20:43.989Z,98056.53
2022-08-17T12:23:33.751Z,98050.38
2022-08-17T12:26:09.929Z,98045.84
2022-08-17T12:28:39.180Z,98052.03
2022-08-17T12:31:20.780Z,98054.53
2022-08-17T12:33:51.642Z,98050.00
2022-08-17T12:36:24.866Z,98053.53
2022-08-17T12:38:59.390Z,98056.22
2022-08-17T12:41:46.921Z,98052.69
2022-08-17T12:44:21.425Z,98055.03
2022-08-17T12:47:19.383Z,98067.59
2022-08-17T12:49:53.509Z,98055.03
2022-08-17T12:52:26.957Z,98055.84
2022-08-17T12:55:03.401Z,98059.38
2022-08-17T12:57:38.722Z,98050.38
2022-08-17T13:00:13.392Z,98059.22
2022-08-17T13:02:54.186Z,98058.38
2022-08-17T13:05:25.546Z,98057.38
2022-08-17T13:07:53.361Z,98054.72
2022-08-17T13:10:32.461Z,98055.53
2022-08-17T13:13:05.882Z,98049.19
2022-08-17T13:15:44.625Z,98046.50
2022-08-17T13:18:29.788Z,98043.84
2022-08-17T13:20:59.202Z,98051.69
2022-08-17T13:23:29.176Z,98053.53
2022-08-17T13:26:02.837Z,98049.88
2022-08-17T13:28:30.602Z,98041.00
2022-08-17T13:31:32.272Z,98050.72
2022-08-17T13:34:24.039Z,98038.16
2022-08-17T13:37:32.618Z,98039.16
2022-08-17T13:40:08.346Z,98041.84
2022-08-17T13:42:51.680Z,98042.53
2022-08-17T13:45:35.326Z,98039.03
2022-08-17T13:48:19.358Z,98043.38
2022-08-17T13:51:03.965Z,98050.38
2022-08-17T13:53:36.943Z,98052.22
2022-08-17T13:56:33.504Z,98051.22
2022-08-17T13:59:12.698Z,98048.38
2022-08-17T14:01:53.166Z,98050.88
2022-08-17T14:04:22.798Z,97995.56
2022-08-17T14:06:57.927Z,98059.56
2022-08-17T14:09:37.074Z,98049.19
2022-08-17T14:12:11.365Z,98060.38
2022-08-17T14:14:38.858Z,98054.72
2022-08-17T14:17:05.639Z,98052.03
2022-08-17T14:19:36.205Z,98059.06
2022-08-17T14:22:04.959Z,98064.22
2022-08-17T14:24:35.062Z,98052.72
2022-08-17T14:27:04.011Z,98059.69
2022-08-17T14:29:32.463Z,98052.53
2022-08-17T14:32:05.020Z,98060.38
2022-08-17T14:34:31.599Z,98055.03
2022-08-17T14:36:58.589Z,98055.88
2022-08-17T14:39:25.300Z,98056.69
2022-08-17T14:41:52.950Z,98048.69
2022-08-17T14:44:19.569Z,98049.69
2022-08-17T14:46:46.308Z,98052.34
2022-08-17T14:49:15.566Z,98056.88
2022-08-17T14:51:44.191Z,98063.91
2022-08-17T14:54:33.291Z,98063.06
2022-08-17T14:57:24.790Z,98055.03
2022-08-17T14:59:48.822Z,98059.38
2022-08-17T15:02:21.647Z,98059.56
2022-08-17T15:05:04.394Z,98063.06
2022-08-17T15:07:31.718Z,98066.59
2022-08-17T15:10:02.092Z,98060.38
2022-08-17T15:12:33.230Z,98060.38
2022-08-17T15:15:01.949Z,98035.66
2022-08-17T15:17:44.737Z,98044.84
2022-08-17T15:20:22.797Z,98049.69
2022-08-17T15:22:50.508Z,98055.38
2022-08-17T15:25:19.195Z,98057.69
2022-08-17T15:27:46.152Z,98064.91
2022-08-17T15:30:13.319Z,98058.56
2022-08-17T15:32:45.855Z,98056.69
2022-08-17T15:35:27.220Z,98061.22
2022-08-17T15:38:10.596Z,98062.06
2022-08-17T15:40:46.999Z,98055.88
2022-08-17T15:43:17.357Z,98062.06
2022-08-17T15:45:45.238Z,98055.88
2022-08-17T15:48:40.727Z,98059.38
2022-08-17T15:51:21.610Z,98048.84
2022-08-17T15:53:59.197Z,98054.03
2022-08-17T15:56:26.847Z,98056.88
2022-08-17T15:58:55.129Z,98047.50
2022-08-17T16:03:01.470Z,98058.69
2022-08-17T16:04:29.711Z,98055.22
2022-08-17T16:06:57.344Z,98064.91
2022-08-17T16:09:23.866Z,98061.38
2022-08-17T16:11:52.169Z,98070.06
2022-08-17T16:14:22.400Z,98069.41
2022-08-17T16:16:50.598Z,98077.28
2022-08-17T16:19:17.264Z,98071.94
2022-08-17T16:21:43.830Z,98074.94
2022-08-17T16:24:13.626Z,98078.94
2022-08-17T16:26:43.574Z,98092.16
2022-08-17T16:29:10.375Z,98093.81
2022-08-17T16:31:37.730Z,98079.59
2022-08-17T16:34:17.970Z,98091.13
2022-08-17T16:36:54.936Z,98098.66
2022-08-17T16:39:27.496Z,98112.88
2022-08-17T16:41:55.846Z,98103.00
2022-08-17T16:44:22.685Z,98104.69
2022-08-17T16:46:50.218Z,98100.50
2022-08-17T16:49:26.778Z,98110.84
2022-08-17T16:52:04.230Z,98115.19
2022-08-17T16:54:30.817Z,98113.53
2022-08-17T16:56:57.383Z,98110.53
2022-08-17T16:59:31.127Z,98119.72
2022-08-17T17:02:10.931Z,98123.06
2022-08-17T17:04:43.384Z,98120.56
2022-08-17T17:07:34.875Z,98120.56
2022-08-17T17:10:15.801Z,98126.91
2022-08-17T17:13:02.231Z,98120.72
2022-08-17T17:15:56.953Z,98113.56
2022-08-17T17:18:37.645Z,98125.22
2022-08-17T17:21:06.424Z,98112.88
2022-08-17T17:23:41.108Z,98133.09
2022-08-17T17:26:29.194Z,98125.22
2022-08-17T17:29:18.806Z,98133.25
2022-08-17T17:32:10.341Z,98143.94
2022-08-17T17:34:39.726Z,98145.81
2022-08-17T17:37:14.142Z,98148.66
2022-08-17T17:39:49.052Z,98151.97
2022-08-17T17:42:22.007Z,98153.84
2022-08-17T17:44:59.150Z,98152.16
2022-08-17T17:47:26.656Z,98152.16
2022-08-17T17:49:53.243Z,98158.38
2022-08-17T17:52:37.974Z,98167.38
2022-08-17T17:55:04.521Z,98175.41
2022-08-17T17:58:05.345Z,98167.38
2022-08-17T18:00:54.076Z,98166.72
2022-08-17T18:03:51.597Z,98172.91
2022-08-17T18:06:29.548Z,98174.75
2022-08-17T18:09:25.370Z,98181.94
2022-08-17T18:12:00.368Z,98181.09
2022-08-17T18:14:42.673Z,98175.72
2022-08-17T18:17:09.180Z,98169.56
2022-08-17T18:19:39.932Z,98173.06
2022-08-17T18:22:19.629Z,98164.38
2022-08-17T18:24:48.938Z,98182.09
2022-08-17T18:27:36.820Z,98185.63
2022-08-17T18:30:26.857Z,98176.91
2022-08-17T18:32:53.577Z,98176.91
2022-08-17T18:35:20.284Z,98179.75
2022-08-17T18:37:55.721Z,98176.41
2022-08-17T18:44:56.891Z,98187.28
2022-08-17T18:47:28.256Z,98191.97
2022-08-17T18:50:26.180Z,98184.13
2022-08-17T18:52:55.240Z,98168.53
2022-08-17T18:55:27.786Z,98191.81
2022-08-17T18:58:13.198Z,98187.63
2022-08-17T19:00:43.470Z,98191.31
2022-08-17T19:03:16.601Z,98195.97
2022-08-17T19:05:56.172Z,98195.63
2022-08-17T19:08:28.843Z,98209.66
2022-08-17T19:11:01.170Z,98206.34
2022-08-17T19:13:44.087Z,98203.16
2022-08-17T19:16:20.310Z,98199.13
2022-08-17T19:18:47.548Z,98198.25
2022-08-17T19:21:25.422Z,98192.22
2022-08-17T19:24:19.551Z,98191.72
2022-08-17T19:27:16.175Z,98193.91
2022-08-17T19:29:54.896Z,98185.72
2022-08-17T19:32:25.663Z,98199.94
2022-08-17T19:34:52.859Z,98204.28
2022-08-17T19:37:25.452Z,98207.13
2022-08-17T19:40:24.434Z,98204.59
2022-08-17T19:43:14.681Z,98209.31
2022-08-17T19:45:47.252Z,98204.94
2022-08-17T19:48:21.263Z,98208.78
2022-08-17T19:50:52.664Z,98207.94
2022-08-17T19:53:36.854Z,98205.44
2022-08-17T19:56:25.078Z,98209.97
2022-08-17T19:59:29.612Z,98215.31
2022-08-17T20:02:38.404Z,98213.78
2022-08-17T20:05:25.935Z,98216.78
2022-08-17T20:07:56.613Z,98222.44
2022-08-17T20:10:28.722Z,98219.13
2022-08-17T20:13:03.045Z,98220.13
2022-08-17T20:15:33.474Z,98220.59
2022-08-17T20:20:31.157Z,98222.91
2022-08-17T20:23:22.868Z,98221.88
2022-08-17T20:26:14.875Z,98220.69
2022-08-17T20:29:10.057Z,98224.16
2022-08-17T20:31:46.708Z,98228.97
2022-08-17T20:34:25.646Z,98224.94
2022-08-17T20:37:26.167Z,98219.25
2022-08-17T20:39:52.941Z,98231.78
2022-08-17T20:42:19.745Z,98218.56
2022-08-17T20:44:52.695Z,98226.75
2022-08-17T20:48:00.832Z,98215.38
2022-08-17T20:50:33.662Z,98200.66
2022-08-17T20:53:03.231Z,98195.50
2022-08-17T20:55:51.404Z,98204.50
2022-08-17T20:58:30.661Z,98205.66
2022-08-17T21:00:58.942Z,98207.47
2022-08-17T21:03:39.976Z,98211.16
2022-08-17T21:06:18.188Z,98196.44
2022-08-17T21:09:12.810Z,98210.66
2022-08-17T21:12:02.654Z,98208.13
2022-08-17T21:14:58.645Z,98211.81
2022-08-17T21:17:38.210Z,98213.09
2022-08-17T21:20:23.920Z,98203.22
2022-08-17T21:23:09.170Z,98215.94
2022-08-17T21:25:48.336Z,98212.75
2022-08-17T21:28:35.619Z,98212.91
2022-08-17T21:31:08.510Z,98207.75
2022-08-17T21:33:39.934Z,98211.41
2022-08-17T21:36:12.947Z,98211.53
2022-08-17T21:38:57.794Z,98202.00
2022-08-17T21:41:29.796Z,98209.19
2022-08-17T21:44:18.058Z,98207.34
2022-08-17T21:46:49.245Z,98199.88
2022-08-17T21:49:19.812Z,98197.38
2022-08-17T21:51:54.049Z,98202.88
2022-08-17T21:54:31.370Z,98204.75
2022-08-17T21:57:03.825Z,98209.09
2022-08-17T22:02:06.468Z,98209.91
2022-08-17T22:04:34.677Z,98204.75
2022-08-17T22:07:04.643Z,98210.06
2022-08-17T22:09:53.397Z,98206.41
2022-08-17T22:12:22.699Z,98202.88
2022-08-17T22:15:04.098Z,98191.56
2022-08-17T22:17:35.331Z,98191.72
2022-08-17T22:20:09.473Z,98189.34
2022-08-17T22:23:18.269Z,98194.69
2022-08-17T22:26:04.858Z,98190.69
2022-08-17T22:28:46.034Z,98184.47
2022-08-17T22:33:49.618Z,98186.31
2022-08-17T22:36:33.517Z,98202.34
2022-08-17T22:39:22.681Z,98194.34
2022-08-17T22:42:00.354Z,98182.81
2022-08-17T22:44:37.732Z,98186.50
2022-08-17T22:47:11.433Z,98171.75
2022-08-17T22:49:59.134Z,98171.56
2022-08-17T22:52:56.026Z,98175.41
2022-08-17T22:55:42.116Z,98174.56
2022-08-17T22:58:42.115Z,98167.41
2022-08-17T23:01:25.979Z,98162.06
2022-08-17T23:04:01.302Z,98172.91
2022-08-17T23:06:29.673Z,98173.06
2022-08-17T23:11:16.816Z,98182.53
2022-08-17T23:13:44.395Z,98185.66
2022-08-17T23:18:32.555Z,98178.97
2022-08-17T23:20:59.690Z,98185.47
2022-08-17T23:23:26.559Z,98187.31
2022-08-17T23:25:54.392Z,98189.81
2022-08-17T23:28:21.498Z,98184.47
2022-08-17T23:30:48.542Z,98193.16
2022-08-17T23:33:41.778Z,98193.00
2022-08-17T23:36:16.782Z,98187.84
2022-08-17T23:38:45.774Z,98172.06
2022-08-17T23:41:19.267Z,98198.63
2022-08-17T23:43:48.843Z,98202.47
2022-08-17T23:48:41.042Z,98208.41
2022-08-17T23:51:11.519Z,98213.09
2022-08-17T23:53:44.046Z,98207.22
2022-08-17T23:56:11.678Z,98170.59
